Time;durP1;ratioP1;P1;durP2;ratioP2;P2;SDS_P1;SDS_P2;PMS_P1;PMS_P2;Temp;Humidity;BMP_temperature;BMP_pressure;BME280_temperature;BME280_humidity;BME280_pressure;Samples;Min_cycle;Max_cycle;Signal;HPM_P1;HPM_P2
2023/12/11 00:01:23;;;;;;;73.95;35.28;;;;;;;1.10;100.00;99349.02;1790906;78;25918;-61
2023/12/11 00:03:50;;;;;;;64.07;34.40;;;;;;;1.11;100.00;99361.28;1741725;80;25741;-61
2023/12/11 00:06:17;;;;;;;63.87;33.15;;;;;;;1.13;100.00;99367.67;1776745;79;27506;-61
2023/12/11 00:08:44;;;;;;;62.53;32.65;;;;;;;1.14;100.00;99342.62;1776056;79;25503;-59
2023/12/11 00:11:12;;;;;;;69.85;33.63;;;;;;;1.14;100.00;99343.41;1779706;80;25800;-60
2023/12/11 00:13:39;;;;;;;66.82;34.73;;;;;;;1.17;100.00;99347.41;1746214;81;25642;-61
2023/12/11 00:16:06;;;;;;;70.22;36.63;;;;;;;1.17;100.00;99344.20;1801435;79;25447;-61
2023/12/11 00:18:33;;;;;;;67.10;35.15;;;;;;;1.17;100.00;99344.20;1802884;78;28068;-61
2023/12/11 00:21:01;;;;;;;71.25;34.23;;;;;;;1.19;100.00;99339.94;1795677;77;25814;-61
2023/12/11 00:23:28;;;;;;;62.13;32.40;;;;;;;1.20;100.00;99342.34;1802278;77;25398;-64
2023/12/11 00:25:54;;;;;;;66.12;33.92;;;;;;;1.21;100.00;99339.13;1801310;78;25775;-62
2023/12/11 00:28:21;;;;;;;58.68;31.68;;;;;;;1.22;100.00;99336.74;1802173;77;25828;-61
2023/12/11 00:30:48;;;;;;;63.73;32.88;;;;;;;1.22;100.00;99334.08;1797814;77;27331;-62
2023/12/11 00:33:15;;;;;;;67.30;34.15;;;;;;;1.23;100.00;99331.69;1795487;77;25551;-62
2023/12/11 00:35:43;;;;;;;61.53;32.13;;;;;;;1.24;100.00;99334.09;1809126;78;25881;-63
2023/12/11 00:38:10;;;;;;;63.63;32.65;;;;;;;1.25;100.00;99338.33;1803038;78;25432;-63
2023/12/11 00:40:36;;;;;;;58.15;31.07;;;;;;;1.27;100.00;99330.86;1766711;79;25435;-63
2023/12/11 00:43:03;;;;;;;63.38;32.03;;;;;;;1.28;100.00;99328.47;1721055;79;27927;-63
2023/12/11 00:45:30;;;;;;;60.43;32.08;;;;;;;1.29;100.00;99328.74;1778811;79;25703;-63
2023/12/11 00:47:57;;;;;;;61.33;31.20;;;;;;;1.31;100.00;99335.11;1770297;80;25427;-63
2023/12/11 00:50:24;;;;;;;65.08;34.10;;;;;;;1.32;100.00;99330.05;1755017;80;25522;-62
2023/12/11 00:52:51;;;;;;;67.40;33.55;;;;;;;1.32;100.00;99331.93;1769499;80;25795;-62
2023/12/11 00:55:19;;;;;;;61.00;31.48;;;;;;;1.34;100.00;99336.45;1770005;79;28060;-62
2023/12/11 00:57:46;;;;;;;61.40;31.70;;;;;;;1.34;100.00;99332.45;1767378;80;25461;-61
2023/12/11 01:00:14;;;;;;;61.42;32.38;;;;;;;1.35;100.00;99332.73;1764515;80;25806;-63
2023/12/11 01:02:42;;;;;;;63.10;32.42;;;;;;;1.35;100.00;99327.40;1766183;79;25450;-63
2023/12/11 01:05:09;;;;;;;63.48;31.12;;;;;;;1.35;100.00;99328.73;1767957;80;25549;-63
2023/12/11 01:07:36;;;;;;;62.93;31.93;;;;;;;1.36;100.00;99323.11;1768329;80;27333;-63
2023/12/11 01:10:04;;;;;;;59.13;31.05;;;;;;;1.36;100.00;99328.97;1744457;79;25717;-63
2023/12/11 01:12:31;;;;;;;67.35;32.23;;;;;;;1.37;100.00;99326.05;1761943;79;25553;-64
2023/12/11 01:14:58;;;;;;;58.33;31.97;;;;;;;1.36;100.00;99311.66;1765857;80;25464;-63
2023/12/11 01:17:25;;;;;;;61.42;31.65;;;;;;;1.39;100.00;99315.12;1771729;79;25864;-63
2023/12/11 01:19:52;;;;;;;60.12;32.75;;;;;;;1.40;100.00;99316.72;1772454;80;27391;-63
2023/12/11 01:22:19;;;;;;;63.08;31.68;;;;;;;1.38;100.00;99307.66;1769002;80;25657;-63
2023/12/11 01:24:46;;;;;;;60.90;31.57;;;;;;;1.41;100.00;99310.30;1765952;79;25904;-63
2023/12/11 01:27:13;;;;;;;65.92;31.17;;;;;;;1.40;100.00;99309.52;1769632;79;25496;-63
2023/12/11 01:29:40;;;;;;;57.30;30.68;;;;;;;1.42;100.00;99310.04;1763263;79;25449;-63
2023/12/11 01:32:06;;;;;;;68.00;32.23;;;;;;;1.43;100.00;99300.16;1775633;79;28048;-63
2023/12/11 01:34:33;;;;;;;54.70;28.65;;;;;;;1.43;100.00;99291.66;1758620;79;25854;-63
2023/12/11 01:37:00;;;;;;;59.65;29.67;;;;;;;1.46;100.00;99290.30;1763408;80;25471;-63
2023/12/11 01:39:27;;;;;;;58.20;29.52;;;;;;;1.47;100.00;99294.57;1766134;80;25366;-64
2023/12/11 01:41:54;;;;;;;55.43;29.00;;;;;;;1.47;100.00;99287.91;1767819;80;26335;-63
2023/12/11 01:44:21;;;;;;;58.35;30.27;;;;;;;1.49;100.00;99292.42;1772368;80;27265;-63
2023/12/11 01:46:47;;;;;;;56.90;28.73;;;;;;;1.51;100.00;99286.83;1740031;80;25706;-63
2023/12/11 01:49:14;;;;;;;53.48;28.02;;;;;;;1.51;100.00;99277.50;1775274;80;25581;-63
2023/12/11 01:51:42;;;;;;;57.98;27.90;;;;;;;1.51;100.00;99284.95;1764386;80;25938;-63
2023/12/11 01:54:09;;;;;;;54.25;27.93;;;;;;;1.54;100.00;99283.08;1762687;79;25367;-63
2023/12/11 01:56:37;;;;;;;51.95;28.77;;;;;;;1.54;100.00;99268.41;1772819;80;27389;-63
2023/12/11 01:59:06;;;;;;;50.92;27.52;;;;;;;1.55;100.00;99270.02;1778792;79;25607;-62
2023/12/11 02:01:36;;;;;;;50.83;26.15;;;;;;;1.58;100.00;99277.99;1769114;80;26209;-62
2023/12/11 02:04:03;;;;;;;52.43;27.13;;;;;;;1.58;100.00;99272.11;1774148;79;25464;-62
2023/12/11 02:06:30;;;;;;;55.35;26.65;;;;;;;1.60;100.00;99255.84;1770146;80;25567;-63
2023/12/11 02:08:57;;;;;;;58.17;25.77;;;;;;;1.61;100.00;99262.24;1761744;80;27321;-63
2023/12/11 02:11:26;;;;;;;50.48;26.60;;;;;;;1.63;100.00;99257.42;1774225;79;25496;-63
2023/12/11 02:13:53;;;;;;;48.33;27.32;;;;;;;1.64;100.00;99248.38;1762345;80;25456;-62
2023/12/11 02:16:20;;;;;;;49.95;25.17;;;;;;;1.66;100.00;99245.43;1780593;79;25713;-62
2023/12/11 02:18:47;;;;;;;49.93;25.25;;;;;;;1.67;100.00;99239.83;1747217;79;25517;-61
2023/12/11 02:21:14;;;;;;;50.83;24.02;;;;;;;1.70;100.00;99241.68;1772080;80;27505;-62
2023/12/11 02:23:55;;;;;;;45.95;24.82;;;;;;;1.70;100.00;99243.80;1772450;79;25783;-61
2023/12/11 02:26:23;;;;;;;46.80;25.37;;;;;;;1.72;100.00;99252.86;1779872;79;25448;-60
2023/12/11 02:28:49;;;;;;;49.42;24.47;;;;;;;1.72;100.00;99241.68;1776485;80;25786;-60
2023/12/11 02:31:16;;;;;;;48.73;24.52;;;;;;;1.74;100.00;99238.19;1766992;79;25400;-58
2023/12/11 02:33:43;;;;;;;49.00;24.92;;;;;;;1.73;100.00;99237.13;1766841;79;27566;-60
2023/12/11 02:36:10;;;;;;;51.05;25.25;;;;;;;1.74;100.00;99235.53;1776144;79;25602;-59
2023/12/11 02:38:37;;;;;;;55.28;27.07;;;;;;;1.74;100.00;99232.86;1762523;80;25700;-59
2023/12/11 02:41:05;;;;;;;43.45;24.57;;;;;;;1.75;100.00;99230.98;1764183;80;25976;-58
2023/12/11 02:43:33;;;;;;;52.05;25.15;;;;;;;1.75;100.00;99215.77;1765461;80;25556;-59
2023/12/11 02:46:00;;;;;;;47.05;25.52;;;;;;;1.76;100.00;99206.71;1770990;79;28202;-59
2023/12/11 02:48:27;;;;;;;44.65;23.62;;;;;;;1.77;100.00;99209.66;1779073;79;26069;-58
2023/12/11 02:50:54;;;;;;;49.15;24.67;;;;;;;1.77;100.00;99204.31;1772346;80;25591;-59
2023/12/11 02:53:21;;;;;;;45.48;24.37;;;;;;;1.78;100.00;99197.89;1768815;80;25940;-59
2023/12/11 02:55:48;;;;;;;46.60;23.00;;;;;;;1.79;100.00;99206.16;1763368;80;25769;-57
2023/12/11 02:58:16;;;;;;;48.65;24.85;;;;;;;1.79;100.00;99197.38;1769138;79;27814;-57
2023/12/11 03:00:42;;;;;;;42.93;23.80;;;;;;;1.81;100.00;99197.89;1774703;80;25562;-56
2023/12/11 03:03:09;;;;;;;50.17;25.08;;;;;;;1.81;100.00;99190.68;1769613;79;25722;-59
2023/12/11 03:05:36;;;;;;;50.35;24.67;;;;;;;1.82;100.00;99190.95;1764513;79;26265;-56
2023/12/11 03:08:05;;;;;;;47.73;24.67;;;;;;;1.82;100.00;99177.62;1740184;80;25419;-59
2023/12/11 03:10:33;;;;;;;45.63;23.00;;;;;;;1.83;100.00;99185.07;1769427;79;27354;-57
2023/12/11 03:12:59;;;;;;;46.25;24.43;;;;;;;1.83;100.00;99177.86;1780347;79;25402;-57
2023/12/11 03:15:26;;;;;;;45.88;23.60;;;;;;;1.82;100.00;99166.13;1769256;80;25361;-56
2023/12/11 03:17:53;;;;;;;46.37;25.00;;;;;;;1.82;100.00;99180.28;1769061;80;25986;-55
2023/12/11 03:20:20;;;;;;;44.83;23.92;;;;;;;1.84;100.00;99180.01;1773088;79;25787;-55
2023/12/11 03:22:47;;;;;;;48.48;25.60;;;;;;;1.82;100.00;99168.28;1773593;79;28322;-57
2023/12/11 03:25:14;;;;;;;43.55;24.25;;;;;;;1.82;100.00;99168.28;1759655;79;25420;-56
2023/12/11 03:27:40;;;;;;;49.90;24.55;;;;;;;1.82;100.00;99168.80;1758310;80;25794;-54
2023/12/11 03:30:09;;;;;;;44.42;23.22;;;;;;;1.82;100.00;99166.13;1763461;79;25867;-54
2023/12/11 03:32:37;;;;;;;47.53;24.75;;;;;;;1.79;100.00;99172.84;1768667;80;25475;-54
2023/12/11 03:35:06;;;;;;;46.37;24.25;;;;;;;1.79;100.00;99187.50;1764951;80;27317;-54
2023/12/11 03:37:33;;;;;;;47.55;23.77;;;;;;;1.79;100.00;99180.83;1767997;79;29116;-54
2023/12/11 03:40:00;;;;;;;49.80;25.95;;;;;;;1.78;100.00;99191.23;1767358;80;25620;-56
2023/12/11 03:42:26;;;;;;;47.58;24.02;;;;;;;1.78;100.00;99197.89;1775495;79;25463;-55
2023/12/11 03:44:54;;;;;;;48.90;24.52;;;;;;;1.78;100.00;99193.11;1769827;79;25885;-56
2023/12/11 03:47:24;;;;;;;46.80;23.05;;;;;;;1.77;100.00;99194.17;1766989;80;27503;-52
2023/12/11 03:49:51;;;;;;;48.95;24.82;;;;;;;1.77;100.00;99180.84;1766538;79;25405;-53
2023/12/11 03:52:18;;;;;;;50.30;24.25;;;;;;;1.77;100.00;99178.98;1771980;80;25814;-52
2023/12/11 03:54:44;;;;;;;52.98;24.82;;;;;;;1.77;100.00;99178.17;1765854;79;25498;-53
2023/12/11 03:57:12;;;;;;;50.23;23.47;;;;;;;1.76;100.00;99173.38;1741291;80;25461;-53
2023/12/11 03:59:38;;;;;;;49.85;25.12;;;;;;;1.76;100.00;99169.38;1764858;79;27457;-56
2023/12/11 04:02:05;;;;;;;51.08;25.92;;;;;;;1.76;100.00;99169.94;1777424;80;25495;-52
2023/12/11 04:04:32;;;;;;;53.30;25.10;;;;;;;1.77;100.00;99156.33;1777323;80;25630;-52
2023/12/11 04:06:59;;;;;;;49.45;26.37;;;;;;;1.77;100.00;99153.66;1766428;79;25649;-57
2023/12/11 04:09:27;;;;;;;47.27;24.72;;;;;;;1.77;100.00;99153.66;1769666;80;25820;-57
2023/12/11 04:11:54;;;;;;;50.45;23.73;;;;;;;1.77;100.00;99154.99;1778122;80;27310;-57
2023/12/11 04:14:21;;;;;;;47.43;25.43;;;;;;;1.76;100.00;99137.94;1761157;79;25738;-56
2023/12/11 04:16:48;;;;;;;50.50;24.67;;;;;;;1.76;100.00;99140.05;1771314;80;25773;-54
2023/12/11 04:19:15;;;;;;;52.00;24.80;;;;;;;1.77;100.00;99137.66;1764306;80;26015;-54
2023/12/11 04:21:43;;;;;;;46.92;23.90;;;;;;;1.76;100.00;99136.60;1773576;79;25419;-56
2023/12/11 04:24:10;;;;;;;49.75;24.25;;;;;;;1.75;100.00;99127.78;1760858;80;27378;-54
2023/12/11 04:26:38;;;;;;;45.45;25.25;;;;;;;1.76;100.00;99121.94;1769781;80;26010;-55
2023/12/11 04:29:05;;;;;;;43.68;23.35;;;;;;;1.74;100.00;99128.06;1772463;79;25601;-56
2023/12/11 04:31:32;;;;;;;50.73;24.50;;;;;;;1.74;100.00;99122.73;1779288;79;26315;-55
2023/12/11 04:33:59;;;;;;;51.30;26.20;;;;;;;1.73;100.00;99125.16;1765127;80;25504;-54
2023/12/11 04:36:26;;;;;;;58.42;24.67;;;;;;;1.73;100.00;99125.16;1768517;80;28063;-54
2023/12/11 04:38:53;;;;;;;44.23;22.27;;;;;;;1.73;100.00;99116.61;1778134;80;25645;-56
2023/12/11 04:41:21;;;;;;;50.00;24.98;;;;;;;1.73;100.00;99114.49;1770954;80;25859;-54
2023/12/11 04:43:48;;;;;;;49.38;25.62;;;;;;;1.72;100.00;99108.38;1771815;80;25490;-57
2023/12/11 04:46:25;;;;;;;49.65;23.70;;;;;;;1.71;100.00;99105.44;1774255;79;25839;-55
2023/12/11 04:48:52;;;;;;;49.33;24.30;;;;;;;1.70;100.00;99105.17;1768938;79;27324;-56
2023/12/11 04:51:20;;;;;;;49.90;24.90;;;;;;;1.70;100.00;99097.72;1772496;80;25921;-55
2023/12/11 04:53:47;;;;;;;54.23;25.70;;;;;;;1.68;100.00;99092.66;1763344;79;25533;-55
2023/12/11 04:56:14;;;;;;;52.15;24.98;;;;;;;1.68;100.00;99100.66;1762908;80;25720;-55
2023/12/11 04:58:42;;;;;;;50.88;25.90;;;;;;;1.68;100.00;99099.33;1778419;79;25443;-53
2023/12/11 05:01:09;;;;;;;57.53;26.65;;;;;;;1.68;100.00;99086.78;1762086;80;27515;-56
2023/12/11 05:03:36;;;;;;;52.95;25.95;;;;;;;1.66;100.00;99093.48;1750578;80;26052;-56
2023/12/11 05:06:06;;;;;;;58.35;28.35;;;;;;;1.64;100.00;99101.75;1764676;79;25393;-56
2023/12/11 05:08:33;;;;;;;50.23;26.95;;;;;;;1.64;100.00;99095.09;1762118;80;25642;-57
2023/12/11 05:11:01;;;;;;;53.68;27.13;;;;;;;1.65;100.00;99105.20;1764667;80;25937;-54
2023/12/11 05:13:28;;;;;;;50.65;24.92;;;;;;;1.65;100.00;99107.88;1765027;79;28356;-53
2023/12/11 05:15:55;;;;;;;53.48;26.55;;;;;;;1.66;100.00;99118.81;1768713;80;25690;-53
2023/12/11 05:18:23;;;;;;;63.23;27.40;;;;;;;1.66;100.00;99105.48;1761877;79;25846;-57
2023/12/11 05:20:50;;;;;;;46.85;24.67;;;;;;;1.65;100.00;99100.70;1771858;80;26304;-56
2023/12/11 05:23:17;;;;;;;53.95;26.45;;;;;;;1.64;100.00;99109.75;1768982;79;25056;-55
2023/12/11 05:25:43;;;;;;;53.13;24.25;;;;;;;1.63;100.00;99116.15;1775170;80;27249;-54
2023/12/11 05:28:11;;;;;;;52.48;24.12;;;;;;;1.63;100.00;99116.15;1768417;80;25775;-55
2023/12/11 05:30:39;;;;;;;48.98;25.20;;;;;;;1.64;100.00;99116.96;1769935;80;25463;-54
2023/12/11 05:33:06;;;;;;;46.50;23.12;;;;;;;1.65;100.00;99117.20;1770855;80;25628;-56
2023/12/11 05:35:34;;;;;;;51.50;25.20;;;;;;;1.64;100.00;99121.75;1777977;80;25870;-55
2023/12/11 05:38:01;;;;;;;53.63;26.20;;;;;;;1.65;100.00;99119.35;1764853;80;27918;-57
2023/12/11 05:40:28;;;;;;;45.52;24.18;;;;;;;1.64;100.00;99115.08;1764984;80;25485;-57
2023/12/11 05:42:56;;;;;;;48.20;23.65;;;;;;;1.66;100.00;99137.47;1757238;80;26900;-57
2023/12/11 05:45:24;;;;;;;49.03;24.25;;;;;;;1.66;100.00;99110.27;1766033;79;25606;-58
2023/12/11 05:47:52;;;;;;;48.80;23.52;;;;;;;1.66;100.00;99124.92;1763642;80;25571;-57
2023/12/11 05:50:21;;;;;;;43.80;23.50;;;;;;;1.64;100.00;99105.75;1779306;79;28535;-58
2023/12/11 05:52:49;;;;;;;46.60;21.33;;;;;;;1.66;100.00;99102.27;1778563;80;26444;-55
2023/12/11 05:55:17;;;;;;;53.42;25.05;;;;;;;1.68;100.00;99104.66;1773272;80;25405;-58
2023/12/11 05:57:45;;;;;;;45.92;20.88;;;;;;;1.67;100.00;99101.75;1770588;79;25850;-58
2023/12/11 06:00:15;;;;;;;46.18;22.17;;;;;;;1.64;100.00;99092.97;1766535;80;25911;-57
2023/12/11 06:02:43;;;;;;;51.33;23.77;;;;;;;1.68;100.00;99097.45;1768917;80;28028;-57
2023/12/11 06:05:10;;;;;;;42.88;22.45;;;;;;;1.64;100.00;99089.77;1770980;80;25820;-56
2023/12/11 06:07:39;;;;;;;47.03;23.05;;;;;;;1.68;100.00;99096.11;1767407;79;25550;-54
2023/12/11 06:10:08;;;;;;;46.60;23.52;;;;;;;1.68;100.00;99089.45;1771998;79;26013;-57
2023/12/11 06:12:36;;;;;;;42.53;22.00;;;;;;;1.67;100.00;99093.20;1785252;79;25783;-58
2023/12/11 06:15:03;;;;;;;48.63;22.85;;;;;;;1.69;100.00;99086.27;1777462;79;27308;-58
2023/12/11 06:17:32;;;;;;;49.48;23.77;;;;;;;1.69;100.00;99080.94;1766852;79;25223;-58
2023/12/11 06:19:59;;;;;;;41.40;21.77;;;;;;;1.67;100.00;99073.76;1773341;80;25766;-56
2023/12/11 06:22:25;;;;;;;46.77;23.27;;;;;;;1.67;100.00;99069.22;1773263;80;25501;-57
2023/12/11 06:24:52;;;;;;;48.70;23.07;;;;;;;1.68;100.00;99080.66;1767368;79;25586;-57
2023/12/11 06:27:19;;;;;;;48.98;22.50;;;;;;;1.67;100.00;99082.55;1732458;80;27330;-56
2023/12/11 06:29:45;;;;;;;45.45;22.37;;;;;;;1.67;100.00;99084.42;1753794;80;25874;-58
2023/12/11 06:32:12;;;;;;;45.33;24.60;;;;;;;1.66;100.00;99083.61;1755763;80;25733;-57
2023/12/11 06:34:40;;;;;;;48.85;22.42;;;;;;;1.67;100.00;99074.55;1752766;80;25524;-57
2023/12/11 06:37:08;;;;;;;46.92;22.50;;;;;;;1.68;100.00;99070.00;1757779;80;25843;-54
2023/12/11 06:39:36;;;;;;;43.13;22.90;;;;;;;1.68;100.00;99069.45;1744538;81;27234;-55
2023/12/11 06:42:03;;;;;;;50.52;22.62;;;;;;;1.68;100.00;99060.12;1763724;80;25724;-56
2023/12/11 06:44:30;;;;;;;50.48;23.35;;;;;;;1.68;100.00;99064.13;1724647;80;25428;-56
2023/12/11 06:46:57;;;;;;;46.65;23.92;;;;;;;1.70;100.00;99065.18;1763336;80;25459;-56
2023/12/11 06:49:25;;;;;;;50.43;24.20;;;;;;;1.71;100.00;99071.33;1755984;80;25527;-58
2023/12/11 06:51:55;;;;;;;44.40;24.60;;;;;;;1.71;100.00;99057.45;1726705;80;27337;-59
2023/12/11 06:54:22;;;;;;;;;;;;;;;1.72;100.00;99060.39;1754254;80;25663;-59
2023/12/11 06:56:50;;;;;;;36.73;21.68;;;;;;;1.71;100.00;99056.12;1765986;80;25532;-58
2023/12/11 06:59:18;;;;;;;51.30;24.05;;;;;;;1.73;100.00;99060.62;1759976;80;25515;-57
2023/12/11 07:01:45;;;;;;;42.25;22.55;;;;;;;1.72;100.00;99063.56;1760595;80;25776;-57
2023/12/11 07:04:13;;;;;;;40.90;21.95;;;;;;;1.72;100.00;99056.91;1756852;80;28288;-58
2023/12/11 07:06:42;;;;;;;;;;;;;;;1.73;100.00;99053.17;1752912;80;25704;-58
2023/12/11 07:09:10;;;;;;;41.15;20.88;;;;;;;1.72;100.00;99050.23;1753643;80;25973;-59
2023/12/11 07:11:38;;;;;;;40.85;20.35;;;;;;;1.72;100.00;99050.23;1760070;80;25389;-58
2023/12/11 07:14:06;;;;;;;45.12;21.00;;;;;;;1.71;100.00;99036.67;1759279;80;25604;-58
2023/12/11 07:16:38;;;;;;;34.92;17.67;;;;;;;1.72;100.00;99023.06;1754839;80;27522;-57
2023/12/11 07:19:04;;;;;;;37.50;19.10;;;;;;;1.74;100.00;99022.75;1751381;80;25467;-56
2023/12/11 07:21:31;;;;;;;37.67;18.57;;;;;;;1.73;100.00;99022.52;1749864;80;25816;-56
2023/12/11 07:23:58;;;;;;;43.02;19.82;;;;;;;1.73;100.00;99005.19;1743936;80;26170;-57
2023/12/11 07:26:26;;;;;;;35.33;17.87;;;;;;;1.74;100.00;99008.09;1779569;80;25555;-57
2023/12/11 07:28:52;;;;;;;32.33;18.45;;;;;;;1.73;100.00;99001.97;1764568;80;27565;-55
2023/12/11 07:31:20;;;;;;;39.73;17.80;;;;;;;1.73;100.00;98995.31;1763407;80;26148;-56
2023/12/11 07:33:48;;;;;;;37.35;18.37;;;;;;;1.73;100.00;98997.97;1758267;80;25931;-58
2023/12/11 07:36:15;;;;;;;33.08;17.55;;;;;;;1.75;100.00;98992.36;1756328;80;26378;-56
2023/12/11 07:38:42;;;;;;;36.35;18.27;;;;;;;1.74;100.00;98997.42;1747131;80;25527;-55
2023/12/11 07:41:11;;;;;;;30.02;16.65;;;;;;;1.75;100.00;99001.70;1756413;80;27766;-56
2023/12/11 07:43:38;;;;;;;34.30;19.20;;;;;;;1.76;100.00;99003.30;1752000;80;25990;-54
2023/12/11 07:46:06;;;;;;;31.05;17.73;;;;;;;1.76;100.00;99000.63;1750410;80;25408;-57
2023/12/11 07:48:34;;;;;;;31.48;16.23;;;;;;;1.77;100.00;98992.35;1757377;80;25778;-51
2023/12/11 07:51:00;;;;;;;32.85;16.52;;;;;;;1.79;100.00;98992.08;1756750;81;25449;-51
2023/12/11 07:53:27;;;;;;;28.57;15.75;;;;;;;1.78;100.00;98979.26;1757959;80;27718;-51
2023/12/11 07:55:54;;;;;;;32.28;15.95;;;;;;;1.79;100.00;98975.53;1757465;80;25865;-52
2023/12/11 07:58:21;;;;;;;31.52;16.05;;;;;;;1.80;100.00;98976.31;1701618;82;25964;-50
2023/12/11 08:00:49;;;;;;;33.30;16.02;;;;;;;1.80;100.00;98965.09;1760352;80;25694;-51
2023/12/11 08:03:16;;;;;;;31.05;15.85;;;;;;;1.82;100.00;98974.16;1761383;80;25789;-51
2023/12/11 08:05:45;;;;;;;26.87;15.80;;;;;;;1.83;100.00;98968.54;1757213;80;27741;-50
2023/12/11 08:08:13;;;;;;;28.75;15.60;;;;;;;1.84;100.00;98966.69;1773444;80;25993;-52
2023/12/11 08:10:41;;;;;;;25.72;15.50;;;;;;;1.84;100.00;98960.02;1778035;79;25539;-49
2023/12/11 08:13:09;;;;;;;27.75;14.90;;;;;;;1.86;100.00;98971.98;1767790;79;26060;-52
2023/12/11 08:15:37;;;;;;;29.20;15.23;;;;;;;1.89;100.00;98962.63;1773366;80;25380;-50
2023/12/11 08:18:05;;;;;;;31.93;15.15;;;;;;;1.90;100.00;98960.75;1768547;80;26865;-50
2023/12/11 08:20:33;;;;;;;34.05;15.40;;;;;;;1.90;100.00;98955.42;1762843;80;25716;-51
2023/12/11 08:23:01;;;;;;;29.63;15.13;;;;;;;1.92;100.00;98953.25;1769832;80;25483;-53
2023/12/11 08:25:27;;;;;;;29.27;14.60;;;;;;;1.92;100.00;98963.38;1771819;80;26341;-53
2023/12/11 08:27:57;;;;;;;28.85;13.93;;;;;;;1.90;100.00;98948.20;1774251;80;25924;-50
2023/12/11 08:30:24;;;;;;;31.60;15.75;;;;;;;1.90;100.00;98952.20;1755886;80;28024;-49
2023/12/11 08:32:51;;;;;;;28.75;13.35;;;;;;;1.90;100.00;98950.88;1775657;79;26003;-50
2023/12/11 08:35:21;;;;;;;26.25;13.78;;;;;;;1.90;100.00;98950.88;1773236;80;25713;-53
2023/12/11 08:38:01;;;;;;;24.12;13.83;;;;;;;1.89;100.00;98955.97;1767626;80;26159;-50
2023/12/11 08:40:28;;;;;;;27.17;14.18;;;;;;;1.88;100.00;98956.25;1766129;80;25308;-51
2023/12/11 08:42:57;;;;;;;24.87;13.03;;;;;;;1.88;100.00;98949.58;1760659;80;28445;-50
2023/12/11 08:45:26;;;;;;;29.60;14.78;;;;;;;1.88;100.00;98952.25;1775853;80;25698;-50
2023/12/11 08:47:52;;;;;;;28.95;13.28;;;;;;;1.87;100.00;98952.77;1767612;79;25696;-50
2023/12/11 08:50:19;;;;;;;25.88;13.80;;;;;;;1.88;100.00;98940.25;1768233;80;25547;-51
2023/12/11 08:52:47;;;;;;;26.80;14.13;;;;;;;1.88;100.00;98946.37;1773170;80;25432;-51
2023/12/11 08:55:15;;;;;;;26.33;14.38;;;;;;;1.86;100.00;98939.98;1768402;80;27279;-50
2023/12/11 08:57:44;;;;;;;25.50;13.75;;;;;;;1.86;100.00;98942.65;1751200;79;25974;-51
2023/12/11 09:00:13;;;;;;;26.00;13.53;;;;;;;1.83;100.00;98932.55;1753426;79;25979;-54
2023/12/11 09:02:40;;;;;;;28.57;13.83;;;;;;;1.84;100.00;98929.36;1769812;80;25912;-53
2023/12/11 09:05:09;;;;;;;25.08;14.13;;;;;;;1.80;100.00;98926.44;1760736;80;25374;-52
2023/12/11 09:07:35;;;;;;;32.08;13.48;;;;;;;1.82;100.00;98914.97;1765811;79;27685;-52
2023/12/11 09:10:41;;;;;;;31.95;15.53;;;;;;;1.81;100.00;98909.38;1754175;80;25865;-52
2023/12/11 09:13:14;;;;;;;29.07;14.25;;;;;;;1.81;100.00;98909.38;1777316;79;25870;-55
2023/12/11 09:15:41;;;;;;;23.65;13.60;;;;;;;1.82;100.00;98903.50;1771811;80;25994;-54
2023/12/11 09:18:09;;;;;;;30.62;15.35;;;;;;;1.83;100.00;98900.55;1767947;79;25434;-51
2023/12/11 09:20:39;;;;;;;27.60;14.03;;;;;;;1.86;100.00;98894.66;1768446;79;27226;-54
2023/12/11 09:23:05;;;;;;;29.20;15.50;;;;;;;1.86;100.00;98889.31;1772919;80;25369;-52
2023/12/11 09:25:35;;;;;;;26.93;15.35;;;;;;;1.85;100.00;98890.39;1758302;80;25876;-54
2023/12/11 09:28:02;;;;;;;26.35;14.93;;;;;;;1.84;100.00;98896.81;1765216;80;25458;-51
2023/12/11 09:30:31;;;;;;;30.35;15.80;;;;;;;1.84;100.00;98896.81;1769453;80;25582;-53
2023/12/11 09:32:57;;;;;;;29.48;16.05;;;;;;;1.84;100.00;98892.81;1757206;80;28050;-52
2023/12/11 09:35:25;;;;;;;28.02;15.43;;;;;;;1.84;100.00;98885.36;1738536;80;25918;-51
2023/12/11 09:37:54;;;;;;;29.18;15.58;;;;;;;1.83;100.00;98885.09;1787658;79;25505;-52
2023/12/11 09:40:23;;;;;;;45.23;26.65;;;;;;;1.83;100.00;98890.43;1777336;79;25983;-53
2023/12/11 09:42:51;;;;;;;37.05;21.17;;;;;;;1.85;100.00;98882.94;1760020;80;25487;-53
2023/12/11 09:45:21;;;;;;;26.52;16.10;;;;;;;1.89;100.00;98883.97;1771576;80;27371;-50
2023/12/11 09:47:53;;;;;;;30.05;15.90;;;;;;;1.92;100.00;98894.59;1775589;80;25646;-51
2023/12/11 09:50:21;;;;;;;32.10;16.42;;;;;;;1.90;100.00;98877.54;1767721;80;25763;-51
2023/12/11 09:52:52;;;;;;;30.27;16.37;;;;;;;1.91;100.00;98868.98;1760703;80;25445;-50
2023/12/11 09:55:18;;;;;;;33.35;16.65;;;;;;;1.90;100.00;98868.20;1753471;79;25485;-50
2023/12/11 09:57:48;;;;;;;30.00;15.38;;;;;;;1.90;100.00;98858.09;1769819;79;27664;-51
2023/12/11 10:00:19;;;;;;;26.33;15.00;;;;;;;1.91;100.00;98864.47;1771885;79;25439;-53
2023/12/11 10:02:51;;;;;;;30.35;15.63;;;;;;;1.93;100.00;98862.86;1766637;80;26082;-55
2023/12/11 10:05:27;;;;;;;29.00;14.63;;;;;;;1.92;100.00;98859.92;1774320;79;25595;-55
2023/12/11 10:07:55;;;;;;;25.72;14.28;;;;;;;1.91;100.00;98855.66;1777511;80;25447;-54
2023/12/11 10:10:33;;;;;;;30.37;14.73;;;;;;;1.93;100.00;98848.97;1773650;79;28090;-55
2023/12/11 10:13:02;;;;;;;23.70;14.07;;;;;;;1.94;100.00;98845.23;1777454;79;31086;-56
2023/12/11 10:15:33;;;;;;;26.80;14.73;;;;;;;1.93;100.00;98842.30;1763011;79;25605;-56
2023/12/11 10:18:08;;;;;;;24.72;14.33;;;;;;;1.95;100.00;98846.02;1758619;80;25912;-54
2023/12/11 10:20:40;;;;;;;29.57;14.78;;;;;;;1.94;100.00;98844.42;1776542;79;25400;-52
2023/12/11 10:23:15;;;;;;;27.50;14.18;;;;;;;1.93;100.00;98830.30;1775256;80;27321;-52
2023/12/11 10:25:45;;;;;;;30.57;15.63;;;;;;;1.93;100.00;98834.30;1753752;79;25688;-55
2023/12/11 10:28:17;;;;;;;30.15;15.08;;;;;;;1.93;100.00;98829.52;1768772;79;25609;-54
2023/12/11 10:30:59;;;;;;;28.10;13.90;;;;;;;1.92;100.00;98822.59;1754297;79;25642;-53
2023/12/11 10:33:33;;;;;;;30.32;14.80;;;;;;;1.93;100.00;98822.30;1770593;79;25566;-55
2023/12/11 10:36:15;;;;;;;31.80;15.83;;;;;;;1.92;100.00;98831.38;1764178;79;27682;-52
2023/12/11 10:38:45;;;;;;;28.45;15.15;;;;;;;1.92;100.00;98826.59;1763808;79;25705;-56
2023/12/11 10:41:26;;;;;;;26.52;14.60;;;;;;;1.92;100.00;98827.37;1750617;80;25370;-53
2023/12/11 10:43:54;;;;;;;24.00;13.90;;;;;;;1.93;100.00;98827.64;1750088;80;26260;-56
2023/12/11 10:46:22;;;;;;;31.33;14.07;;;;;;;1.96;100.00;98831.07;1775821;80;25598;-55
2023/12/11 10:48:49;;;;;;;29.37;15.13;;;;;;;1.97;100.00;98824.63;1763774;80;28034;-57
2023/12/11 10:51:16;;;;;;;27.85;14.28;;;;;;;1.98;100.00;98811.56;1754455;80;25421;-54
2023/12/11 10:53:45;;;;;;;28.87;14.53;;;;;;;2.00;100.00;98817.40;1755153;80;25389;-51
2023/12/11 10:56:13;;;;;;;28.92;14.28;;;;;;;2.00;100.00;98819.28;1750689;80;25949;-54
2023/12/11 10:58:41;;;;;;;27.70;14.90;;;;;;;1.99;100.00;98805.16;1768156;80;25581;-54
2023/12/11 11:01:12;;;;;;;27.35;14.40;;;;;;;2.01;100.00;98807.52;1769882;80;27562;-51
2023/12/11 11:03:40;;;;;;;25.00;13.98;;;;;;;2.01;100.00;98801.66;1763116;80;25777;-56
2023/12/11 11:06:09;;;;;;;28.75;13.80;;;;;;;2.03;100.00;98808.83;1761750;80;25452;-56
2023/12/11 11:08:54;;;;;;;28.57;14.70;;;;;;;2.04;100.00;98798.94;1729632;80;25969;-55
2023/12/11 11:11:32;;;;;;;23.12;13.22;;;;;;;2.05;100.00;98803.99;1725340;81;25815;-55
2023/12/11 11:14:28;;;;;;;27.13;14.55;;;;;;;2.07;100.00;98794.38;1727751;81;27955;-56
2023/12/11 11:17:02;;;;;;;24.67;13.38;;;;;;;2.07;100.00;98798.38;1746584;81;26046;-56
2023/12/11 11:19:30;;;;;;;23.52;13.68;;;;;;;2.07;100.00;98794.38;1753040;81;25532;-55
2023/12/11 11:22:09;;;;;;;28.55;13.70;;;;;;;2.10;100.00;98796.47;1729619;80;26089;-53